LTFM

Istanbul Airport

Airport
ICAO code
LTFM
IATA Code
IST
Summary
ICAO Region
EUR
ICAO Territory
Location

Arnavutkoy, Istanbul

Serving
Istanbul
Elevation
325 ft
Coordinates
41° 15' 41" N , 28° 44' 34" E
KCC
Metar
Observation
LTFM 300950Z 17010KT CAVOK 27/14 Q1016 NOSIG
Station
Istanbul New Airport
Date/Time
2022-09-30 09:50:00
Wind direction
170°
Wind speed
10 kts
Lowest cloud amount
clouds and visibility OK
Temperature
27°C
Dew point
14°C
Humidity
44%
QNH
1016 hPa
Weather condition
n/a

Istanbul Airport is the main international airport serving Istanbul, Turkey. It is located in the Arnavutköy district on the European side of the city.

Climatology

Dry-summer subtropical ”Mediterranean" climate (Köppen climate classification Csa)

Airport map

Aerial View

SKYbrary Partners:

Safety knowledge contributed by: